Peotone Weather

Nearby METAR Reports

 

KIGQ - Lansing, Illinois, USA
Distance from station: NE 19mi, 30km
Updated: Tue, 05-Jul-2022 1:35am CDT

 Wind from NNW
Wind: NNW 22 mph , 35 km/h, Gust: 40 mph , 65 km/h
Visibility: 7 miles , 11 km
2022/07/05 06:35 KIGQ 050635Z AUTO 33019G35KT 7SM +VCTSRA SCT016 SCT027 BKN034 22/21 A2998 RMK AO2 LTG DSNT ALQS P0001 T02230206
KIKK - Kankakee, Illinois, USA
Distance from station: S 19mi, 30km
Updated: Tue, 05-Jul-2022 1:37am CDT
Clear
Clear
 Wind from SW
Wind: SW 9 mph , 15 km/h
Temperature: 79°F , 26°C
Dew Point: 75°F , 24°C
Humidity: 89%
Barometer: 29.93 inHg , 1013.5 hPa
Clouds: Clear
Visibility: 10 miles , 16 km
2022/07/05 06:37 KIKK 050637Z AUTO 22008KT 10SM CLR 26/24 A2993 RMK AO2 LTG DSNT N AND NE
 
KSJC - Joliet, Illinois, USA
Distance from station: WNW 24mi, 38km
Updated: Tue, 05-Jul-2022 12:53am CDT
NOT Current
Mostly cloudy
Mostly cloudy
 Wind from N
Wind: N 8 mph , 13 km/h
Temperature: 68°F , 20°C
Dew Point: 61°F , 16°C
Humidity: 78%
Barometer: 29.97 inHg , 1014.9 hPa
Clouds: Mostly cloudy
Visibility: 10 miles , 16 km
Cloud details: Few Clouds 2000 ft
Mostly cloudy 9000 ft
2022/07/05 05:53 KSJC 050553Z 36007KT 10SM FEW020 BKN090 20/16 A2997 RMK AO2 SLP147 T02000156 10256 20200 53006
KLOT - Romeoville, Illinois, USA
Distance from station: NW 26mi, 41km
Updated: Tue, 05-Jul-2022 1:35am CDT
Overcast
Overcast
 Wind from NE
Wind: NE 21 mph , 33 km/h, Gust: 26 mph , 43 km/h
Temperature: 72°F , 22°C
Dew Point: 68°F , 20°C
Humidity: 88%
Barometer: 29.94 inHg , 1013.9 hPa
Clouds: Overcast
Cloud details: Mostly cloudy 2600 ft
Overcast 3200 ft
2022/07/05 06:35 KLOT 050635Z AUTO 04018G23KT BKN026 OVC032 22/20 A2994 RMK AO2 LTG DSNT NW THRU E P0004 T02160201 PWINO
 
KMDW - Midway Airport Chicago, Illinois, USA
Distance from station: N 31mi, 50km
Updated: Tue, 05-Jul-2022 1:17am CDT
Heavy thunderstorm, Rain, Mist, Overcast
Heavy thunderstorm, Rain, Mist, Overcast
 Wind from WNW
Wind: WNW 13 mph , 20 km/h, Gust: 22 mph , 35 km/h
Temperature: 70°F , 21°C
Dew Point: 66°F , 19°C
Humidity: 88%
Barometer: 29.96 inHg , 1014.6 hPa
Summary: Heavy thunderstorm, Rain, Mist
Clouds: Overcast
Visibility: 2 miles , 3 km
Cloud details: Mostly cloudy 1500 ft
Mostly cloudy 2200 ft
Overcast 5000 ft
2022/07/05 06:17 KMDW 050617Z 30011G19KT 260V330 2SM +TSRA BR BKN015 BKN022 OVC050CB 21/19 A2996 RMK AO2 PK WND 33028/0601 LTG DSNT ALQDS CONS LTGIC OHD TS OHD MOV SE P0074 T02110189
KC09 - Morris, Illinois, USA
Distance from station: W 34mi, 54km
Updated: Tue, 05-Jul-2022 1:35am CDT
Clear
Clear
 Wind from SSW
Wind: SSW 7 mph , 11 km/h
Temperature: 79°F , 26°C
Dew Point: 77°F , 25°C
Humidity: 94%
Barometer: 29.90 inHg , 1012.5 hPa
Clouds: Clear
Visibility: 10 miles , 16 km
2022/07/05 06:35 KC09 050635Z AUTO 21006KT 10SM CLR 26/25 A2990 RMK AO2 LTG DSNT N AND NE T02630247

Metar display script from Saratoga-Weather.org